createdAt,value
2023-05-02T00:00:29.595Z,244.41
2023-05-02T00:01:29.280Z,244.11
2023-05-02T00:02:29.426Z,243.53
2023-05-02T00:03:29.532Z,244.40
2023-05-02T00:04:29.506Z,245.05
2023-05-02T00:05:29.410Z,243.55
2023-05-02T00:06:29.593Z,243.13
2023-05-02T00:07:29.487Z,243.10
2023-05-02T00:08:29.501Z,243.05
2023-05-02T00:09:29.534Z,243.41
2023-05-02T00:10:29.565Z,243.07
2023-05-02T00:11:29.613Z,244.21
2023-05-02T00:12:29.670Z,243.63
2023-05-02T00:13:29.707Z,243.01
2023-05-02T00:14:29.715Z,242.41
2023-05-02T00:15:29.734Z,242.88
2023-05-02T00:16:29.876Z,241.88
2023-05-02T00:17:29.818Z,244.16
2023-05-02T00:18:29.837Z,245.12
2023-05-02T00:19:29.874Z,242.74
2023-05-02T00:20:29.854Z,239.83
2023-05-02T00:21:29.893Z,242.18
2023-05-02T00:22:29.924Z,243.41
2023-05-02T00:23:29.979Z,242.89
2023-05-02T00:24:30.022Z,244.27
2023-05-02T00:25:30.019Z,243.54
2023-05-02T00:26:30.083Z,242.68
2023-05-02T00:27:30.125Z,239.82
2023-05-02T00:28:30.118Z,242.26
2023-05-02T00:29:30.164Z,242.60
2023-05-02T00:30:30.207Z,243.37
2023-05-02T00:31:30.296Z,241.76
2023-05-02T00:32:30.276Z,241.58
2023-05-02T00:33:30.350Z,243.58
2023-05-02T00:34:30.385Z,242.23
2023-05-02T00:35:30.358Z,241.09
2023-05-02T00:36:30.444Z,243.77
2023-05-02T00:37:30.451Z,242.77
2023-05-02T00:38:30.465Z,241.64
2023-05-02T00:39:30.485Z,241.79
2023-05-02T00:40:30.549Z,241.22
2023-05-02T00:41:30.610Z,240.89
2023-05-02T00:42:30.615Z,241.66
2023-05-02T00:43:30.647Z,244.37
2023-05-02T00:44:30.648Z,240.37
2023-05-02T00:45:30.705Z,241.61
2023-05-02T00:46:30.738Z,241.81
2023-05-02T00:47:30.840Z,241.32
2023-05-02T00:48:30.814Z,240.72
2023-05-02T00:49:30.839Z,240.56
2023-05-02T00:50:30.900Z,241.66
2023-05-02T00:51:30.903Z,241.03
2023-05-02T00:52:30.952Z,240.78
2023-05-02T00:53:30.965Z,241.64
2023-05-02T00:54:31.027Z,238.14
2023-05-02T00:55:31.088Z,241.40
2023-05-02T00:56:31.099Z,239.70
2023-05-02T00:57:31.154Z,240.39
2023-05-02T00:58:31.158Z,239.59
2023-05-02T00:59:31.212Z,238.62
2023-05-02T01:00:31.232Z,237.25
2023-05-02T01:01:31.345Z,238.47
2023-05-02T01:02:31.396Z,239.95
2023-05-02T01:03:31.495Z,238.91
2023-05-02T01:04:31.357Z,240.19
2023-05-02T01:05:31.402Z,238.94
2023-05-02T01:06:31.566Z,239.93
2023-05-02T01:07:31.484Z,239.53
2023-05-02T01:08:31.511Z,238.63
2023-05-02T01:09:31.527Z,238.29
2023-05-02T01:10:31.583Z,238.93
2023-05-02T01:11:32.107Z,237.19
2023-05-02T01:12:31.669Z,238.62
2023-05-02T01:13:31.712Z,239.94
2023-05-02T01:14:31.722Z,239.06
2023-05-02T01:15:31.759Z,236.87
2023-05-02T01:16:31.799Z,239.00
2023-05-02T01:17:31.831Z,237.68
2023-05-02T01:18:31.912Z,238.39
2023-05-02T01:19:31.915Z,236.41
2023-05-02T01:20:31.965Z,237.94
2023-05-02T01:21:32.031Z,239.56
2023-05-02T01:22:32.025Z,237.73
2023-05-02T01:23:32.079Z,236.56
2023-05-02T01:24:32.156Z,238.66
2023-05-02T01:25:32.159Z,239.79
2023-05-02T01:26:32.215Z,238.18
2023-05-02T01:27:32.212Z,237.59
2023-05-02T01:28:32.300Z,237.22
2023-05-02T01:29:32.285Z,235.04
2023-05-02T01:30:32.310Z,237.26
2023-05-02T01:31:32.641Z,238.17
2023-05-02T01:32:32.463Z,236.72
2023-05-02T01:33:32.448Z,236.45
2023-05-02T01:34:32.482Z,235.52
2023-05-02T01:35:32.532Z,238.15
2023-05-02T01:36:32.669Z,236.41
2023-05-02T01:37:32.667Z,236.85
2023-05-02T01:38:32.719Z,236.16
2023-05-02T01:39:32.680Z,236.28
2023-05-02T01:40:32.752Z,235.78
2023-05-02T01:41:32.786Z,234.84
2023-05-02T01:42:32.732Z,234.89
2023-05-02T01:43:32.780Z,237.45
2023-05-02T01:44:32.814Z,236.02
2023-05-02T01:45:32.866Z,236.25
2023-05-02T01:46:32.921Z,235.99
2023-05-02T01:47:32.963Z,234.81
2023-05-02T01:48:32.920Z,232.95
2023-05-02T01:49:32.935Z,233.57
2023-05-02T01:50:32.993Z,234.60
2023-05-02T01:51:33.013Z,236.41
2023-05-02T01:52:33.021Z,234.91
2023-05-02T01:53:33.077Z,234.88
2023-05-02T01:54:33.066Z,233.64
2023-05-02T01:55:33.085Z,234.78
2023-05-02T01:56:33.646Z,235.61
2023-05-02T01:57:33.149Z,235.36
2023-05-02T01:58:33.167Z,233.45
2023-05-02T01:59:33.193Z,233.65
2023-05-02T02:00:33.356Z,234.46
2023-05-02T02:01:33.391Z,234.31
2023-05-02T02:02:33.333Z,235.44
2023-05-02T02:03:33.427Z,234.59
2023-05-02T02:04:33.429Z,234.20
2023-05-02T02:05:33.416Z,235.03
2023-05-02T02:06:33.699Z,232.36
2023-05-02T02:07:33.576Z,234.49
2023-05-02T02:08:33.535Z,234.32
2023-05-02T02:09:33.601Z,232.96
2023-05-02T02:10:33.543Z,234.91
2023-05-02T02:11:33.565Z,236.22
2023-05-02T02:12:33.610Z,233.17
2023-05-02T02:13:33.662Z,232.97
2023-05-02T02:14:33.659Z,232.23
2023-05-02T02:15:33.740Z,235.12
2023-05-02T02:16:34.209Z,234.11
2023-05-02T02:17:33.768Z,233.49
2023-05-02T02:18:33.762Z,233.87
2023-05-02T02:19:33.767Z,232.16
2023-05-02T02:20:33.807Z,233.68
2023-05-02T02:21:34.122Z,231.71
2023-05-02T02:22:33.883Z,232.97
2023-05-02T02:23:33.859Z,231.58
2023-05-02T02:24:33.895Z,230.32
2023-05-02T02:25:33.927Z,232.16
2023-05-02T02:26:34.106Z,231.39
2023-05-02T02:27:33.970Z,231.83
2023-05-02T02:28:33.973Z,231.75
2023-05-02T02:29:34.028Z,231.94
2023-05-02T02:30:34.085Z,231.19
2023-05-02T02:31:34.290Z,231.10
2023-05-02T02:32:34.070Z,231.81
2023-05-02T02:33:34.165Z,229.85
2023-05-02T02:34:34.122Z,229.40
2023-05-02T02:35:34.142Z,231.61
2023-05-02T02:36:34.178Z,231.59
2023-05-02T02:37:34.183Z,232.01
2023-05-02T02:38:34.254Z,229.59
2023-05-02T02:39:34.307Z,230.90
2023-05-02T02:40:34.284Z,230.46
2023-05-02T02:41:34.591Z,231.04
2023-05-02T02:42:34.385Z,229.42
2023-05-02T02:43:34.366Z,229.27
2023-05-02T02:44:34.399Z,231.69
2023-05-02T02:45:34.456Z,230.94
2023-05-02T02:46:34.705Z,230.56
2023-05-02T02:47:34.511Z,233.20
2023-05-02T02:48:34.583Z,228.48
2023-05-02T02:49:34.572Z,231.96
2023-05-02T02:50:34.588Z,229.59
2023-05-02T02:51:35.149Z,228.95
2023-05-02T02:52:34.662Z,229.67
2023-05-02T02:53:34.705Z,228.53
2023-05-02T02:54:34.736Z,229.39
2023-05-02T02:55:34.770Z,228.41
2023-05-02T02:56:34.785Z,229.82
2023-05-02T02:57:34.770Z,228.70
2023-05-02T02:58:34.865Z,228.26
2023-05-02T02:59:34.863Z,228.27
2023-05-02T03:00:34.858Z,229.84
2023-05-02T03:01:34.945Z,227.69
2023-05-02T03:02:34.940Z,228.12
2023-05-02T03:03:35.023Z,229.17
2023-05-02T03:04:34.907Z,228.26
2023-05-02T03:05:34.962Z,230.31
2023-05-02T03:06:35.129Z,229.29
2023-05-02T03:07:35.595Z,229.59
2023-05-02T03:08:35.026Z,225.98
2023-05-02T03:09:35.059Z,228.95
2023-05-02T03:10:35.134Z,229.03
2023-05-02T03:11:35.650Z,228.65
2023-05-02T03:12:35.184Z,225.02
2023-05-02T03:13:35.332Z,230.52
2023-05-02T03:14:35.184Z,227.39
2023-05-02T03:15:35.238Z,230.27
2023-05-02T03:16:35.378Z,225.99
2023-05-02T03:17:35.315Z,228.86
2023-05-02T03:18:35.314Z,227.89
2023-05-02T03:19:35.413Z,227.38
2023-05-02T03:20:35.381Z,229.50
2023-05-02T03:21:35.453Z,225.20
2023-05-02T03:22:35.424Z,226.18
2023-05-02T03:23:35.454Z,226.67
2023-05-02T03:24:35.487Z,226.91
2023-05-02T03:25:35.521Z,224.72
2023-05-02T03:26:35.567Z,227.38
2023-05-02T03:27:35.592Z,227.09
2023-05-02T03:28:36.142Z,224.63
2023-05-02T03:29:35.607Z,223.85
2023-05-02T03:30:35.645Z,226.40
2023-05-02T03:31:35.732Z,226.21
2023-05-02T03:32:35.689Z,226.37
2023-05-02T03:33:35.661Z,223.65
2023-05-02T03:34:35.718Z,224.62
2023-05-02T03:35:35.708Z,224.62
2023-05-02T03:36:35.753Z,225.21
2023-05-02T03:37:35.729Z,227.62
2023-05-02T03:38:35.858Z,224.43
2023-05-02T03:39:35.823Z,223.61
2023-05-02T03:40:35.882Z,223.17
2023-05-02T03:41:35.858Z,223.62
2023-05-02T03:42:35.848Z,225.35
2023-05-02T03:43:35.876Z,222.55
2023-05-02T03:44:35.922Z,225.96
2023-05-02T03:45:36.642Z,224.72
2023-05-02T03:46:35.996Z,223.88
2023-05-02T03:47:36.022Z,226.17
2023-05-02T03:48:36.043Z,224.13
2023-05-02T03:49:36.016Z,223.60
2023-05-02T03:50:36.079Z,224.28
2023-05-02T03:51:36.115Z,224.42
2023-05-02T03:52:36.111Z,222.10
2023-05-02T03:53:36.172Z,223.48
2023-05-02T03:54:36.186Z,223.97
2023-05-02T03:55:36.189Z,221.76
2023-05-02T03:56:36.306Z,224.09
2023-05-02T03:57:36.278Z,222.48
2023-05-02T03:58:36.344Z,221.59
2023-05-02T03:59:36.420Z,219.82
2023-05-02T04:00:36.490Z,224.49
2023-05-02T04:01:36.510Z,221.48
2023-05-02T04:02:36.639Z,219.33
2023-05-02T04:03:36.681Z,220.94
2023-05-02T04:04:36.736Z,221.31
2023-05-02T04:05:36.608Z,222.09
2023-05-02T04:06:36.694Z,222.48
2023-05-02T04:07:36.680Z,223.90
2023-05-02T04:08:36.677Z,220.45
2023-05-02T04:09:36.721Z,222.57
2023-05-02T04:10:36.744Z,220.27
2023-05-02T04:11:36.815Z,222.67
2023-05-02T04:12:36.824Z,222.18
2023-05-02T04:13:36.877Z,223.03
2023-05-02T04:14:36.883Z,223.08
2023-05-02T04:15:36.887Z,221.56
2023-05-02T04:16:37.227Z,221.05
2023-05-02T04:17:37.051Z,221.76
2023-05-02T04:18:36.991Z,221.10
2023-05-02T04:19:37.064Z,223.23
2023-05-02T04:20:37.073Z,220.76
2023-05-02T04:21:37.118Z,219.13
2023-05-02T04:22:37.169Z,220.14
2023-05-02T04:23:37.180Z,221.51
2023-05-02T04:24:37.199Z,219.71
2023-05-02T04:25:37.268Z,219.21
2023-05-02T04:26:37.322Z,221.42
2023-05-02T04:27:37.312Z,220.97
2023-05-02T04:28:37.344Z,219.26
2023-05-02T04:29:37.398Z,219.68
2023-05-02T04:30:37.465Z,220.76
2023-05-02T04:31:37.464Z,220.91
2023-05-02T04:32:37.495Z,221.70
2023-05-02T04:33:37.524Z,218.52
2023-05-02T04:34:37.528Z,220.01
2023-05-02T04:35:37.547Z,219.39
2023-05-02T04:36:37.591Z,217.84
2023-05-02T04:37:38.139Z,220.61
2023-05-02T04:38:37.695Z,219.82
2023-05-02T04:39:37.720Z,218.75
2023-05-02T04:40:37.781Z,218.64
2023-05-02T04:41:37.837Z,217.90
2023-05-02T04:42:37.843Z,219.08
2023-05-02T04:43:37.844Z,216.91
2023-05-02T04:44:37.902Z,217.73
2023-05-02T04:45:37.972Z,219.93
2023-05-02T04:46:37.992Z,218.30
2023-05-02T04:47:38.239Z,219.68
2023-05-02T04:48:38.021Z,217.23
2023-05-02T04:49:38.027Z,217.16
2023-05-02T04:50:38.097Z,216.98
2023-05-02T04:51:38.089Z,215.56
2023-05-02T04:52:38.127Z,214.46
2023-05-02T04:53:38.142Z,206.92
2023-05-02T04:54:38.230Z,196.69
2023-05-02T04:55:38.241Z,191.17
2023-05-02T04:56:38.281Z,183.18
2023-05-02T04:57:38.307Z,168.50
2023-05-02T04:58:38.399Z,159.75
2023-05-02T04:59:38.418Z,155.88
2023-05-02T05:00:38.484Z,147.02
2023-05-02T05:01:38.576Z,137.85
2023-05-02T05:02:38.614Z,132.08
2023-05-02T05:03:38.778Z,127.84
2023-05-02T05:04:39.673Z,121.51
2023-05-02T05:05:38.808Z,111.25
2023-05-02T05:06:38.900Z,109.52
2023-05-02T05:07:38.767Z,102.81
2023-05-02T05:08:38.838Z,97.33
2023-05-02T05:09:38.890Z,93.68
2023-05-02T05:10:38.945Z,88.56
2023-05-02T05:11:38.999Z,84.55
2023-05-02T05:12:39.067Z,79.59
2023-05-02T05:13:39.079Z,75.66
2023-05-02T05:14:39.135Z,73.45
2023-05-02T05:15:39.157Z,67.89
2023-05-02T05:16:39.427Z,63.07
2023-05-02T05:17:39.358Z,60.33
2023-05-02T05:18:39.369Z,56.39
2023-05-02T05:19:39.438Z,52.71
2023-05-02T05:20:39.451Z,52.95
2023-05-02T05:21:39.494Z,49.23
2023-05-02T05:22:39.497Z,48.85
2023-05-02T05:23:39.504Z,51.46
2023-05-02T05:24:39.560Z,53.58
2023-05-02T05:25:39.668Z,51.91
2023-05-02T05:26:39.719Z,49.53
2023-05-02T05:27:39.784Z,53.94
2023-05-02T05:28:39.744Z,54.62
2023-05-02T05:29:39.853Z,55.16
2023-05-02T05:30:39.924Z,80.75
2023-05-02T05:31:40.000Z,78.72
2023-05-02T05:32:40.066Z,75.22
2023-05-02T05:33:40.201Z,60.24
2023-05-02T05:34:40.151Z,62.07
2023-05-02T05:35:40.191Z,62.23
2023-05-02T05:36:40.230Z,56.36
2023-05-02T05:37:40.289Z,62.23
2023-05-02T05:38:40.338Z,61.11
2023-05-02T05:39:40.389Z,61.03
2023-05-02T05:40:40.437Z,61.18
2023-05-02T05:41:40.524Z,63.30
2023-05-02T05:42:40.553Z,65.47
2023-05-02T05:43:40.620Z,75.28
2023-05-02T05:44:40.683Z,89.39
2023-05-02T05:45:40.728Z,124.47
2023-05-02T05:46:40.889Z,124.80
2023-05-02T05:47:40.975Z,115.40
2023-05-02T05:48:40.919Z,145.94
2023-05-02T05:49:40.966Z,153.44
2023-05-02T05:50:41.068Z,163.29
2023-05-02T05:51:41.131Z,182.24
2023-05-02T05:52:41.214Z,207.80
2023-05-02T05:53:41.207Z,222.63
2023-05-02T05:54:41.254Z,216.78
2023-05-02T05:55:42.435Z,224.13
2023-05-02T05:56:41.319Z,235.92
2023-05-02T05:57:41.383Z,250.37
2023-05-02T05:58:41.393Z,248.91
2023-05-02T05:59:41.450Z,247.65
2023-05-02T06:00:41.461Z,250.00
2023-05-02T06:01:41.475Z,249.66
2023-05-02T06:02:41.554Z,250.34
2023-05-02T06:03:41.749Z,244.60
2023-05-02T06:04:41.626Z,248.28
2023-05-02T06:05:41.633Z,249.84
2023-05-02T06:06:41.691Z,249.14
2023-05-02T06:07:41.616Z,249.08
2023-05-02T06:08:41.571Z,249.87
2023-05-02T06:09:41.630Z,249.38
2023-05-02T06:10:41.634Z,248.97
2023-05-02T06:11:41.590Z,250.00
2023-05-02T06:12:41.602Z,248.79
2023-05-02T06:13:41.742Z,248.33
2023-05-02T06:14:41.666Z,245.86
2023-05-02T06:15:41.691Z,248.05
2023-05-02T06:16:41.701Z,248.92
2023-05-02T06:17:41.835Z,246.87
2023-05-02T06:18:41.713Z,247.43
2023-05-02T06:19:41.678Z,248.11
2023-05-02T06:20:41.695Z,244.90
2023-05-02T06:21:41.751Z,249.01
2023-05-02T06:22:41.745Z,248.88
2023-05-02T06:23:41.781Z,248.46
2023-05-02T06:24:41.854Z,249.50
2023-05-02T06:25:41.845Z,247.56
2023-05-02T06:26:41.883Z,250.00
2023-05-02T06:27:41.951Z,249.74
2023-05-02T06:28:42.013Z,249.35
2023-05-02T06:29:41.991Z,247.76
2023-05-02T06:30:42.024Z,247.19
2023-05-02T06:31:42.126Z,249.64
2023-05-02T06:32:42.167Z,248.02
2023-05-02T06:33:42.242Z,246.27
2023-05-02T06:34:42.325Z,250.00
2023-05-02T06:35:42.346Z,246.82
2023-05-02T06:36:42.372Z,246.09
2023-05-02T06:37:42.468Z,248.21
2023-05-02T06:38:42.554Z,248.87
2023-05-02T06:39:42.601Z,246.68
2023-05-02T06:40:42.634Z,249.23
2023-05-02T06:41:42.718Z,245.76
2023-05-02T06:42:42.742Z,245.15
2023-05-02T06:43:42.780Z,245.03
2023-05-02T06:44:42.823Z,248.50
2023-05-02T06:45:42.853Z,245.18
2023-05-02T06:46:43.051Z,249.08
2023-05-02T06:47:43.035Z,244.94
2023-05-02T06:48:42.988Z,242.14
2023-05-02T06:49:43.006Z,240.60
2023-05-02T06:50:43.049Z,244.11
2023-05-02T06:51:43.138Z,250.00
2023-05-02T06:52:43.139Z,239.39
2023-05-02T06:53:43.194Z,236.22
2023-05-02T06:54:43.179Z,238.08
2023-05-02T06:55:43.266Z,240.44
2023-05-02T06:56:43.270Z,245.29
2023-05-02T06:57:43.328Z,238.63
2023-05-02T06:58:43.546Z,234.56
2023-05-02T06:59:43.401Z,237.63
2023-05-02T07:00:43.481Z,239.35
2023-05-02T07:01:43.517Z,174.23
2023-05-02T07:02:43.567Z,145.92
2023-05-02T07:03:43.592Z,125.85
2023-05-02T07:04:43.803Z,115.83
2023-05-02T07:05:43.577Z,119.55
2023-05-02T07:06:43.644Z,120.02
2023-05-02T07:07:43.574Z,126.09
2023-05-02T07:08:43.584Z,117.32
2023-05-02T07:09:43.585Z,113.97
2023-05-02T07:10:43.610Z,120.40
2023-05-02T07:11:43.602Z,127.64
2023-05-02T07:12:43.683Z,139.36
2023-05-02T07:13:43.632Z,145.77
2023-05-02T07:14:43.635Z,145.54
2023-05-02T07:15:43.696Z,131.75
2023-05-02T07:16:43.667Z,146.02
2023-05-02T07:17:43.715Z,148.62
2023-05-02T07:18:43.679Z,129.69
2023-05-02T07:19:45.369Z,136.97
2023-05-02T07:20:43.686Z,143.15
2023-05-02T07:21:43.681Z,145.92
2023-05-02T07:22:43.701Z,150.66
2023-05-02T07:23:43.689Z,150.24
2023-05-02T07:24:43.724Z,155.15
2023-05-02T07:25:43.754Z,162.60
2023-05-02T07:26:43.835Z,166.77
2023-05-02T07:27:43.877Z,168.62
2023-05-02T07:28:43.953Z,170.36
2023-05-02T07:29:43.976Z,172.49
2023-05-02T07:30:44.064Z,186.80
2023-05-02T07:31:44.190Z,189.16
2023-05-02T07:32:44.157Z,188.62
2023-05-02T07:33:44.228Z,186.68
2023-05-02T07:34:44.249Z,192.93
2023-05-02T07:35:44.292Z,194.66
2023-05-02T07:36:44.343Z,197.19
2023-05-02T07:37:44.402Z,196.54
2023-05-02T07:38:44.516Z,196.85
2023-05-02T07:39:44.432Z,199.41
2023-05-02T07:40:44.474Z,197.59
2023-05-02T07:41:44.526Z,196.12
2023-05-02T07:42:44.534Z,198.08
2023-05-02T07:43:44.548Z,199.11
2023-05-02T07:44:51.621Z,199.30
2023-05-02T07:45:44.657Z,199.63
2023-05-02T07:46:44.624Z,200.78
2023-05-02T07:47:44.582Z,200.83
2023-05-02T07:48:44.586Z,188.84
2023-05-02T07:49:44.586Z,191.30
2023-05-02T07:50:44.529Z,209.77
2023-05-02T07:51:44.556Z,192.66
2023-05-02T07:52:44.569Z,195.41
2023-05-02T07:53:44.537Z,194.16
2023-05-02T07:54:44.514Z,196.30
2023-05-02T07:55:44.485Z,208.16
2023-05-02T07:56:44.529Z,209.74
2023-05-02T07:57:44.776Z,199.79
2023-05-02T07:58:44.476Z,198.16
2023-05-02T07:59:44.448Z,213.57
2023-05-02T08:00:44.465Z,209.33
2023-05-02T08:01:44.477Z,207.94
2023-05-02T08:02:44.822Z,210.10
2023-05-02T08:03:44.598Z,206.03
2023-05-02T08:04:44.517Z,197.46
2023-05-02T08:05:44.420Z,198.41
2023-05-02T08:06:44.484Z,202.22
2023-05-02T08:07:44.405Z,195.59
2023-05-02T08:08:44.410Z,196.34
2023-05-02T08:09:44.383Z,192.10
2023-05-02T08:10:44.444Z,191.50
2023-05-02T08:11:44.382Z,187.38
2023-05-02T08:12:44.387Z,185.86
2023-05-02T08:13:44.381Z,185.23
2023-05-02T08:14:44.356Z,184.55
2023-05-02T08:15:44.392Z,182.76
2023-05-02T08:16:46.217Z,180.33
2023-05-02T08:17:44.447Z,182.73
2023-05-02T08:18:44.442Z,180.05
2023-05-02T08:19:44.482Z,178.84
2023-05-02T08:20:44.497Z,177.13
2023-05-02T08:21:44.512Z,178.69
2023-05-02T08:22:44.528Z,175.05
2023-05-02T08:23:44.564Z,176.36
2023-05-02T08:24:44.630Z,172.13
2023-05-02T08:25:44.634Z,171.08
2023-05-02T08:26:44.647Z,173.54
2023-05-02T08:27:44.706Z,174.04
2023-05-02T08:28:44.676Z,172.02
2023-05-02T08:29:44.704Z,170.46
2023-05-02T08:30:44.777Z,169.59
2023-05-02T08:31:44.835Z,169.43
2023-05-02T08:32:45.333Z,168.51
2023-05-02T08:33:44.806Z,168.15
2023-05-02T08:34:44.809Z,168.59
2023-05-02T08:35:44.830Z,168.47
2023-05-02T08:36:44.885Z,165.86
2023-05-02T08:37:44.966Z,165.08
2023-05-02T08:38:44.929Z,163.60
2023-05-02T08:39:44.944Z,164.27
2023-05-02T08:40:44.925Z,163.40
2023-05-02T08:41:44.982Z,164.45
2023-05-02T08:42:45.031Z,164.35
2023-05-02T08:43:45.020Z,158.38
2023-05-02T08:44:45.018Z,163.45
2023-05-02T08:45:45.052Z,159.13
2023-05-02T08:46:45.135Z,158.67
2023-05-02T08:47:45.110Z,165.93
2023-05-02T08:48:45.099Z,169.29
2023-05-02T08:49:45.104Z,180.61
2023-05-02T08:50:45.115Z,190.74
2023-05-02T08:51:45.110Z,184.28
2023-05-02T08:52:45.169Z,192.46
2023-05-02T08:53:45.192Z,196.26
2023-05-02T08:54:45.226Z,197.48
2023-05-02T08:55:45.201Z,194.17
2023-05-02T08:56:45.199Z,192.82
2023-05-02T08:57:45.267Z,199.60
2023-05-02T08:58:45.267Z,191.58
2023-05-02T08:59:45.293Z,203.23
2023-05-02T09:00:45.297Z,201.52
2023-05-02T09:01:45.426Z,204.46
2023-05-02T09:02:45.797Z,208.98
2023-05-02T09:03:45.300Z,210.13
2023-05-02T09:04:45.364Z,205.73
2023-05-02T09:05:45.318Z,206.79
2023-05-02T09:06:45.489Z,208.29
2023-05-02T09:07:45.339Z,207.08
2023-05-02T09:08:45.341Z,215.75
2023-05-02T09:09:45.337Z,216.68
2023-05-02T09:10:45.364Z,214.11
2023-05-02T09:11:45.354Z,215.31
2023-05-02T09:12:45.416Z,218.99
2023-05-02T09:13:45.417Z,215.99
2023-05-02T09:14:45.493Z,212.57
2023-05-02T09:15:45.481Z,213.31
2023-05-02T09:16:45.509Z,214.42
2023-05-02T09:17:45.615Z,212.55
2023-05-02T09:18:45.558Z,210.08
2023-05-02T09:19:45.619Z,211.87
2023-05-02T09:20:45.628Z,210.24
2023-05-02T09:21:45.680Z,213.75
2023-05-02T09:22:45.792Z,212.00
2023-05-02T09:23:45.849Z,214.94
2023-05-02T09:24:45.860Z,211.03
2023-05-02T09:25:45.922Z,209.20
2023-05-02T09:26:45.997Z,211.30
2023-05-02T09:27:46.289Z,209.04
2023-05-02T09:28:46.056Z,205.13
2023-05-02T09:29:46.098Z,206.64
2023-05-02T09:30:46.187Z,201.48
2023-05-02T09:31:55.565Z,200.73
2023-05-02T09:32:47.317Z,200.77
2023-05-02T09:33:46.179Z,200.33
2023-05-02T09:34:46.176Z,200.97
2023-05-02T09:35:46.133Z,204.28
2023-05-02T09:36:46.198Z,206.21
2023-05-02T09:37:46.164Z,206.59
2023-05-02T09:38:46.167Z,207.78
2023-05-02T09:39:46.172Z,205.20
2023-05-02T09:40:46.224Z,209.19
2023-05-02T09:41:46.277Z,205.91
2023-05-02T09:42:46.353Z,207.16
2023-05-02T09:43:46.360Z,215.22
2023-05-02T09:44:46.407Z,216.32
2023-05-02T09:45:46.496Z,209.70
2023-05-02T09:46:46.529Z,193.17
2023-05-02T09:47:46.619Z,194.36
2023-05-02T09:48:46.624Z,193.50
2023-05-02T09:49:46.903Z,187.59
2023-05-02T09:50:46.695Z,178.89
2023-05-02T09:51:46.701Z,181.42
2023-05-02T09:52:46.713Z,185.68
2023-05-02T09:53:46.823Z,185.00
2023-05-02T09:54:56.750Z,178.17
2023-05-02T09:55:47.868Z,176.71
2023-05-02T09:56:46.696Z,166.65
2023-05-02T09:57:46.692Z,161.06
2023-05-02T09:58:46.782Z,157.13
2023-05-02T09:59:46.661Z,152.78
2023-05-02T10:00:46.679Z,148.49
2023-05-02T10:01:46.748Z,139.89
2023-05-02T10:02:46.679Z,135.53
2023-05-02T10:03:46.802Z,134.13
2023-05-02T10:04:46.662Z,133.05
2023-05-02T10:05:46.599Z,121.87
2023-05-02T10:06:46.734Z,117.68
2023-05-02T10:07:46.657Z,112.73
2023-05-02T10:08:46.821Z,109.20
2023-05-02T10:09:46.624Z,107.11
2023-05-02T10:10:46.641Z,105.62
2023-05-02T10:11:46.605Z,103.05
2023-05-02T10:12:46.588Z,103.76
2023-05-02T10:13:46.801Z,103.22
2023-05-02T10:14:46.705Z,94.31
2023-05-02T10:15:46.726Z,91.58
2023-05-02T10:16:46.739Z,92.47
2023-05-02T10:17:46.789Z,93.72
2023-05-02T10:18:47.297Z,92.47
2023-05-02T10:19:46.910Z,86.82
2023-05-02T10:20:46.963Z,81.38
2023-05-02T10:21:46.975Z,79.47
2023-05-02T10:22:47.020Z,80.06
2023-05-02T10:23:47.093Z,78.19
2023-05-02T10:24:47.101Z,83.67
2023-05-02T10:25:47.191Z,80.11
2023-05-02T10:26:47.302Z,72.53
2023-05-02T10:27:47.304Z,73.18
2023-05-02T10:28:47.343Z,70.37
2023-05-02T10:29:47.392Z,72.85
2023-05-02T10:30:47.418Z,72.05
2023-05-02T10:31:47.597Z,64.56
2023-05-02T10:32:47.597Z,67.25
2023-05-02T10:33:47.585Z,64.32
2023-05-02T10:34:47.682Z,61.83
2023-05-02T10:35:47.706Z,55.52
2023-05-02T10:36:47.726Z,53.57
2023-05-02T10:37:47.820Z,39.62
2023-05-02T10:38:47.838Z,38.55
2023-05-02T10:39:47.909Z,49.52
2023-05-02T10:40:47.951Z,35.57
2023-05-02T10:41:47.985Z,25.00
2023-05-02T10:42:48.014Z,25.03
2023-05-02T10:43:48.097Z,25.12
2023-05-02T10:44:48.165Z,26.76
2023-05-02T10:45:48.190Z,25.32
2023-05-02T10:46:48.249Z,25.00
2023-05-02T10:47:48.351Z,28.14
2023-05-02T10:48:48.363Z,71.01
2023-05-02T10:49:48.404Z,74.10
2023-05-02T10:50:48.436Z,60.97
2023-05-02T10:51:48.457Z,75.22
2023-05-02T10:52:48.535Z,78.18
2023-05-02T10:53:48.551Z,93.21
2023-05-02T10:54:48.537Z,94.23
2023-05-02T10:55:48.575Z,93.87
2023-05-02T10:56:48.617Z,94.74
2023-05-02T10:57:48.674Z,102.29
2023-05-02T10:58:48.626Z,99.00
2023-05-02T10:59:48.651Z,99.40
2023-05-02T11:00:48.739Z,104.61
2023-05-02T11:01:48.681Z,104.52
2023-05-02T11:02:48.876Z,108.20
2023-05-02T11:03:48.824Z,108.75
2023-05-02T11:04:48.718Z,104.75
2023-05-02T11:05:48.715Z,106.72
2023-05-02T11:06:48.745Z,112.70
2023-05-02T11:07:48.738Z,115.06
2023-05-02T11:08:48.739Z,110.99
2023-05-02T11:09:48.751Z,104.71
2023-05-02T11:10:48.760Z,108.15
2023-05-02T11:11:48.782Z,104.57
2023-05-02T11:12:48.785Z,99.23
2023-05-02T11:13:48.814Z,104.12
2023-05-02T11:14:48.841Z,102.09
2023-05-02T11:15:48.804Z,104.97
2023-05-02T11:16:48.818Z,112.59
2023-05-02T11:17:48.904Z,108.20
2023-05-02T11:18:49.341Z,105.57
2023-05-02T11:19:48.814Z,97.65
2023-05-02T11:20:48.844Z,102.99
2023-05-02T11:21:48.864Z,113.55
2023-05-02T11:22:48.858Z,114.05
2023-05-02T11:23:48.848Z,110.80
2023-05-02T11:24:48.864Z,108.83
2023-05-02T11:25:48.883Z,104.56
2023-05-02T11:26:48.874Z,111.59
2023-05-02T11:27:48.876Z,104.11
2023-05-02T11:28:48.889Z,113.11
2023-05-02T11:29:48.841Z,112.62
2023-05-02T11:30:48.924Z,108.25
2023-05-02T11:31:48.853Z,110.36
2023-05-02T11:32:48.888Z,102.90
2023-05-02T11:33:48.868Z,90.22
2023-05-02T11:34:48.883Z,85.88
2023-05-02T11:35:49.053Z,81.09
2023-05-02T11:36:48.890Z,79.72
2023-05-02T11:37:48.885Z,77.06
2023-05-02T11:38:48.865Z,79.96
2023-05-02T11:39:48.923Z,73.73
2023-05-02T11:40:48.923Z,75.27
2023-05-02T11:41:49.001Z,66.72
2023-05-02T11:42:49.007Z,67.62
2023-05-02T11:43:49.359Z,64.41
2023-05-02T11:44:49.045Z,63.71
2023-05-02T11:45:49.107Z,64.24
2023-05-02T11:46:49.210Z,59.86
2023-05-02T11:47:49.192Z,57.81
2023-05-02T11:48:49.167Z,55.67
2023-05-02T11:49:49.194Z,51.26
2023-05-02T11:50:50.396Z,50.96
2023-05-02T11:51:49.301Z,48.18
2023-05-02T11:52:49.324Z,48.38
2023-05-02T11:53:49.336Z,42.92
2023-05-02T11:54:49.385Z,42.71
2023-05-02T11:55:49.401Z,40.64
2023-05-02T11:56:49.437Z,39.21
2023-05-02T11:57:49.532Z,39.11
2023-05-02T11:58:49.514Z,35.75
2023-05-02T11:59:49.574Z,33.36
2023-05-02T12:00:49.631Z,30.90
2023-05-02T12:01:49.695Z,31.11
2023-05-02T12:02:49.838Z,30.84
2023-05-02T12:03:49.902Z,28.61
2023-05-02T12:04:49.806Z,25.00
2023-05-02T12:05:49.918Z,29.01
2023-05-02T12:06:49.960Z,27.86
2023-05-02T12:07:49.991Z,26.07
2023-05-02T12:08:50.003Z,26.59
2023-05-02T12:09:50.050Z,25.54
2023-05-02T12:10:50.129Z,28.22
2023-05-02T12:11:50.162Z,27.62
2023-05-02T12:12:50.239Z,26.10
2023-05-02T12:13:50.759Z,24.74
2023-05-02T12:14:50.351Z,29.36
2023-05-02T12:15:50.535Z,25.52
2023-05-02T12:16:50.466Z,25.00
2023-05-02T12:17:50.561Z,25.62
2023-05-02T12:18:50.652Z,27.42
2023-05-02T12:19:50.699Z,27.25
2023-05-02T12:20:50.682Z,25.70
2023-05-02T12:21:50.755Z,28.26
2023-05-02T12:22:50.822Z,27.24
2023-05-02T12:23:50.977Z,27.13
2023-05-02T12:24:50.943Z,28.87
2023-05-02T12:25:50.978Z,29.25
2023-05-02T12:26:51.856Z,28.31
2023-05-02T12:27:51.105Z,30.54
2023-05-02T12:28:51.158Z,31.52
2023-05-02T12:29:51.204Z,35.71
2023-05-02T12:30:51.266Z,60.36
2023-05-02T12:31:51.324Z,83.94
2023-05-02T12:32:51.364Z,86.50
2023-05-02T12:33:51.444Z,107.03